Time;durP1;ratioP1;P1;durP2;ratioP2;P2;SDS_P1;SDS_P2;PMS_P1;PMS_P2;Temp;Humidity;BMP_temperature;BMP_pressure;BME280_temperature;BME280_humidity;BME280_pressure;Samples;Min_cycle;Max_cycle;Signal;HPM_P1;HPM_P2
2022/11/18 00:06:54;;;;;;;;;;;6.50;99.90;;;;;;20883460;28;20327;-57
2022/11/18 00:17:05;;;;;;;;;;;6.60;99.90;;;;;;20895995;28;19916;-58
2022/11/18 00:27:07;;;;;;;;;;;6.70;99.90;;;;;;20894317;28;20344;-58
2022/11/18 00:37:10;;;;;;;;;;;6.70;99.90;;;;;;20885680;28;19913;-59
2022/11/18 00:47:16;;;;;;;;;;;6.70;99.90;;;;;;20891785;28;20297;-60
2022/11/18 00:57:18;;;;;;;;;;;6.70;99.90;;;;;;20892494;28;20431;-58
2022/11/18 01:07:20;;;;;;;;;;;6.70;99.90;;;;;;20891264;28;19909;-59
2022/11/18 01:17:22;;;;;;;;;;;6.70;99.90;;;;;;20883624;28;19912;-59
2022/11/18 01:27:24;;;;;;;;;;;6.50;99.90;;;;;;20886263;28;19909;-58
2022/11/18 01:37:27;;;;;;;;;;;6.40;99.90;;;;;;20881233;28;19913;-58
2022/11/18 01:47:40;;;;;;;;;;;6.40;99.90;;;;;;20889041;28;19959;-59
2022/11/18 01:57:43;;;;;;;;;;;6.20;99.90;;;;;;20879580;28;19916;-58
2022/11/18 02:07:45;;;;;;;;;;;6.20;99.90;;;;;;20882650;28;19913;-59
2022/11/18 02:17:56;;;;;;;;;;;6.30;99.90;;;;;;20886827;28;19913;-59
2022/11/18 02:28:16;;;;;;;;;;;6.30;99.90;;;;;;20873678;28;19908;-59
2022/11/18 02:38:33;;;;;;;;;;;6.40;99.90;;;;;;20879748;28;19967;-59
2022/11/18 02:48:39;;;;;;;;;;;6.40;99.90;;;;;;20875328;28;19909;-58
2022/11/18 02:58:41;;;;;;;;;;;6.40;99.90;;;;;;20875709;28;19952;-58
2022/11/18 03:08:48;;;;;;;;;;;6.40;99.90;;;;;;20876228;28;20353;-59
2022/11/18 03:18:50;;;;;;;;;;;6.30;99.90;;;;;;20869811;28;19962;-59
2022/11/18 03:29:03;;;;;;;;;;;6.30;99.90;;;;;;20866765;28;19912;-58
2022/11/18 03:39:07;;;;;;;;;;;6.40;99.90;;;;;;20877130;28;19978;-60
2022/11/18 03:49:13;;;;;;;;;;;6.30;99.90;;;;;;20880548;28;19908;-57
2022/11/18 03:59:19;;;;;;;;;;;6.30;99.90;;;;;;20872354;28;19916;-59
2022/11/18 04:09:28;;;;;;;;;;;6.30;99.90;;;;;;20872880;28;20340;-59
2022/11/18 04:19:30;;;;;;;;;;;6.20;99.90;;;;;;20874686;28;19975;-59
2022/11/18 04:29:33;;;;;;;;;;;6.20;99.90;;;;;;20875579;28;19909;-59
2022/11/18 04:39:35;;;;;;;;;;;6.20;99.90;;;;;;20873876;28;20038;-59
2022/11/18 04:49:38;;;;;;;;;;;6.20;99.90;;;;;;20871941;28;19913;-59
2022/11/18 04:59:41;;;;;;;;;;;6.10;99.90;;;;;;20892724;28;19912;-59
2022/11/18 05:09:43;;;;;;;;;;;6.10;99.90;;;;;;20891503;28;19908;-59
2022/11/18 05:19:45;;;;;;;;;;;5.90;99.90;;;;;;20885368;28;20377;-58
2022/11/18 05:29:47;;;;;;;;;;;5.60;99.90;;;;;;20884120;28;20277;-58
2022/11/18 05:39:49;;;;;;;;;;;5.40;99.90;;;;;;20884727;28;19924;-56
2022/11/18 05:49:53;;;;;;;;;;;5.20;99.90;;;;;;20884153;28;19916;-59
2022/11/18 05:59:55;;;;;;;;;;;5.30;99.90;;;;;;20888262;28;19917;-58
2022/11/18 06:09:58;;;;;;;;;;;5.50;99.90;;;;;;20884219;28;19909;-59
2022/11/18 06:20:01;;;;;;;;;;;5.60;99.90;;;;;;20880733;28;19916;-58
2022/11/18 06:30:07;;;;;;;;;;;5.70;99.90;;;;;;20886036;28;19912;-58
2022/11/18 06:40:09;;;;;;;;;;;5.60;99.90;;;;;;20879930;28;19947;-59
2022/11/18 06:50:12;;;;;;;;;;;5.80;99.90;;;;;;20876750;28;20270;-59
2022/11/18 07:00:15;;;;;;;;;;;5.80;99.90;;;;;;20879827;28;19913;-59
2022/11/18 07:10:17;;;;;;;;;;;5.90;99.90;;;;;;20878652;28;19962;-59
2022/11/18 07:20:19;;;;;;;;;;;5.90;99.90;;;;;;20876592;28;20053;-59
2022/11/18 07:30:21;;;;;;;;;;;5.90;99.90;;;;;;20873296;28;20377;-59
2022/11/18 07:40:24;;;;;;;;;;;6.30;99.90;;;;;;20871881;28;19917;-59
2022/11/18 07:50:27;;;;;;;;;;;6.40;99.90;;;;;;20893956;28;19916;-59
2022/11/18 08:00:29;;;;;;;;;;;6.40;99.90;;;;;;20880196;28;19917;-59
2022/11/18 08:10:31;;;;;;;;;;;6.40;99.90;;;;;;20873741;28;20282;-59
2022/11/18 08:20:34;;;;;;;;;;;6.60;99.90;;;;;;20870585;28;20340;-59
2022/11/18 08:30:36;;;;;;;;;;;6.60;99.90;;;;;;20878464;28;19910;-59
2022/11/18 08:40:40;;;;;;;;;;;7.20;99.90;;;;;;20889658;28;20319;-59
2022/11/18 08:50:43;;;;;;;;;;;6.60;99.90;;;;;;20884373;28;19962;-58
2022/11/18 09:00:45;;;;;;;;;;;6.70;99.90;;;;;;20884877;28;19917;-60
2022/11/18 09:10:48;;;;;;;;;;;6.50;99.90;;;;;;20888071;28;19912;-58
2022/11/18 09:20:57;;;;;;;;;;;6.30;99.90;;;;;;20883375;28;19970;-60
2022/11/18 09:31:02;;;;;;;;;;;6.70;99.90;;;;;;20890338;28;19913;-60
2022/11/18 09:41:22;;;;;;;;;;;6.90;99.90;;;;;;20880900;28;19917;-59
2022/11/18 09:51:26;;;;;;;;;;;7.50;99.90;;;;;;20879898;28;19916;-60
2022/11/18 10:01:29;;;;;;;;;;;8.00;99.90;;;;;;20880187;28;19912;-60
2022/11/18 10:11:34;;;;;;;;;;;8.40;99.90;;;;;;20867952;28;20010;-60
2022/11/18 10:21:36;;;;;;;;;;;8.90;99.90;;;;;;20878116;28;19924;-60
2022/11/18 10:31:50;;;;;;;;;;;8.90;99.90;;;;;;20885686;28;19908;-61
2022/11/18 10:41:57;;;;;;;;;;;9.00;99.90;;;;;;20874074;28;19970;-61
2022/11/18 10:52:09;;;;;;;;;;;9.30;99.90;;;;;;20847459;28;19913;-61
2022/11/18 11:02:14;;;;;;;;;;;9.60;99.90;;;;;;20874705;28;20270;-62
2022/11/18 11:12:18;;;;;;;;;;;9.90;99.90;;;;;;20859797;28;20378;-61
2022/11/18 11:22:20;;;;;;;;;;;9.80;99.90;;;;;;20877248;28;19913;-61
2022/11/18 11:32:32;;;;;;;;;;;10.00;98.70;;;;;;20881220;28;19947;-62
2022/11/18 11:42:39;;;;;;;;;;;10.10;98.00;;;;;;20875913;28;20488;-61
2022/11/18 11:52:55;;;;;;;;;;;10.10;98.20;;;;;;20867954;28;20367;-61
2022/11/18 12:03:10;;;;;;;;;;;10.30;97.90;;;;;;20876999;28;19916;-60
2022/11/18 12:13:30;;;;;;;;;;;10.20;97.90;;;;;;20879792;28;19935;-61
2022/11/18 12:23:33;;;;;;;;;;;10.30;98.40;;;;;;20891406;28;19913;-61
2022/11/18 12:33:41;;;;;;;;;;;10.30;99.90;;;;;;20895534;28;19913;-60
2022/11/18 12:43:46;;;;;;;;;;;11.30;99.90;;;;;;20886517;28;19929;-60
2022/11/18 12:53:50;;;;;;;;;;;11.80;99.90;;;;;;20868405;28;19916;-60
2022/11/18 13:04:05;;;;;;;;;;;11.70;99.90;;;;;;20872561;28;19912;-60
2022/11/18 13:24:41;;;;;;;;;;;10.70;99.90;;;;;;20883791;28;19999;-61
2022/11/18 13:34:44;;;;;;;;;;;10.30;99.90;;;;;;20889451;28;19912;-60
2022/11/18 13:44:56;;;;;;;;;;;9.90;99.90;;;;;;20889864;28;19980;-60
2022/11/18 13:54:59;;;;;;;;;;;9.60;99.90;;;;;;20888374;28;19947;-61
2022/11/18 14:05:02;;;;;;;;;;;9.30;99.90;;;;;;20877035;28;19917;-60
2022/11/18 14:15:33;;;;;;;;;;;9.10;99.90;;;;;;20882929;28;20487;-60
2022/11/18 14:25:36;;;;;;;;;;;8.60;99.90;;;;;;20634403;28;20295;-60
2022/11/18 14:35:38;;;;;;;;;;;8.20;99.90;;;;;;20596527;28;19918;-59
2022/11/18 14:45:41;;;;;;;;;;;8.10;99.90;;;;;;20561620;28;19961;-60
2022/11/18 14:55:44;;;;;;;;;;;7.90;99.90;;;;;;20640818;28;19912;-59
2022/11/18 15:05:47;;;;;;;;;;;7.30;99.90;;;;;;20871381;28;19942;-59
2022/11/18 15:15:50;;;;;;;;;;;6.50;99.90;;;;;;20882666;28;19943;-58
2022/11/18 15:25:52;;;;;;;;;;;6.10;99.90;;;;;;20872914;28;19912;-59
2022/11/18 15:35:54;;;;;;;;;;;5.50;99.90;;;;;;20876012;28;19970;-59
2022/11/18 15:45:57;;;;;;;;;;;5.00;99.90;;;;;;20876512;28;20052;-59
2022/11/18 15:56:18;;;;;;;;;;;4.70;99.90;;;;;;20868800;28;20214;-58
2022/11/18 16:06:21;;;;;;;;;;;4.40;99.90;;;;;;20873451;28;20365;-59
2022/11/18 16:16:27;;;;;;;;;;;4.20;99.90;;;;;;20863456;28;19990;-59
2022/11/18 16:26:29;;;;;;;;;;;3.90;99.90;;;;;;20866966;28;19909;-58
2022/11/18 16:36:32;;;;;;;;;;;4.00;99.90;;;;;;20862925;28;19917;-58
2022/11/18 16:46:35;;;;;;;;;;;3.80;99.90;;;;;;20880720;28;20280;-58
2022/11/18 16:56:39;;;;;;;;;;;3.60;99.90;;;;;;20876628;28;19943;-56
2022/11/18 17:06:42;;;;;;;;;;;3.60;99.90;;;;;;20888290;28;19908;-58
2022/11/18 17:16:45;;;;;;;;;;;3.90;99.90;;;;;;20891934;28;20364;-59
2022/11/18 17:26:47;;;;;;;;;;;3.80;99.90;;;;;;20876718;28;19909;-58
2022/11/18 17:36:49;;;;;;;;;;;3.60;99.90;;;;;;20869902;28;19970;-58
2022/11/18 17:46:52;;;;;;;;;;;3.80;99.90;;;;;;20885151;28;20519;-58
2022/11/18 17:56:56;;;;;;;;;;;3.90;99.90;;;;;;20659713;28;20396;-59
2022/11/18 18:07:00;;;;;;;;;;;3.90;99.90;;;;;;20653935;28;19965;-59
2022/11/18 18:17:04;;;;;;;;;;;3.90;99.90;;;;;;20671103;28;19913;-59
2022/11/18 18:27:06;;;;;;;;;;;3.90;99.90;;;;;;20654833;28;19937;-58
2022/11/18 18:37:08;;;;;;;;;;;4.10;99.90;;;;;;20680221;28;20015;-59
2022/11/18 18:47:11;;;;;;;;;;;4.10;99.90;;;;;;20758205;28;19966;-57
2022/11/18 18:57:13;;;;;;;;;;;4.30;99.90;;;;;;20876833;28;20404;-59
2022/11/18 19:07:17;;;;;;;;;;;4.50;99.90;;;;;;20878071;28;19966;-59
2022/11/18 19:17:22;;;;;;;;;;;4.20;99.90;;;;;;20866047;28;19917;-58
2022/11/18 19:27:24;;;;;;;;;;;4.20;99.90;;;;;;20859393;28;20271;-58
2022/11/18 19:37:26;;;;;;;;;;;4.30;99.90;;;;;;20876400;28;19996;-59
2022/11/18 19:47:28;;;;;;;;;;;4.10;99.90;;;;;;20868690;28;19909;-59
2022/11/18 19:57:31;;;;;;;;;;;4.50;99.90;;;;;;20872110;28;20289;-59
2022/11/18 20:07:34;;;;;;;;;;;4.30;99.90;;;;;;20871963;28;19917;-60
2022/11/18 20:17:36;;;;;;;;;;;4.50;99.90;;;;;;20878980;28;19970;-60
2022/11/18 20:27:39;;;;;;;;;;;4.70;99.90;;;;;;20884631;28;19952;-59
2022/11/18 20:37:41;;;;;;;;;;;4.70;99.90;;;;;;20886337;28;20397;-58
2022/11/18 20:47:44;;;;;;;;;;;4.70;99.90;;;;;;20886828;28;19913;-59
2022/11/18 20:57:48;;;;;;;;;;;4.70;99.90;;;;;;20887667;28;19955;-59
2022/11/18 21:07:52;;;;;;;;;;;4.60;99.90;;;;;;20880085;28;19939;-59
2022/11/18 21:17:54;;;;;;;;;;;4.70;99.90;;;;;;20883419;28;19917;-60
2022/11/18 21:27:58;;;;;;;;;;;4.70;99.90;;;;;;20885256;28;19932;-59
2022/11/18 21:38:03;;;;;;;;;;;4.70;99.90;;;;;;20888237;28;19966;-59
2022/11/18 21:48:06;;;;;;;;;;;4.90;99.90;;;;;;20885792;28;20316;-59
2022/11/18 21:58:08;;;;;;;;;;;4.80;99.90;;;;;;20885163;28;19917;-58
2022/11/18 22:08:11;;;;;;;;;;;4.70;99.90;;;;;;20880382;28;19962;-60
2022/11/18 22:18:13;;;;;;;;;;;4.80;99.60;;;;;;20881249;28;19913;-59
2022/11/18 22:28:15;;;;;;;;;;;4.90;99.80;;;;;;20881795;28;20399;-59
2022/11/18 22:38:19;;;;;;;;;;;4.80;99.90;;;;;;20874791;28;19917;-59
2022/11/18 22:48:21;;;;;;;;;;;4.70;99.90;;;;;;20883738;28;19958;-59
2022/11/18 22:58:23;;;;;;;;;;;4.70;99.90;;;;;;20879005;28;19920;-59
2022/11/18 23:08:27;;;;;;;;;;;4.50;99.90;;;;;;20871528;28;19909;-59
2022/11/18 23:18:29;;;;;;;;;;;4.50;99.90;;;;;;20883671;28;19974;-59
2022/11/18 23:28:32;;;;;;;;;;;4.50;99.80;;;;;;20872467;28;20320;-58
2022/11/18 23:38:35;;;;;;;;;;;4.40;99.80;;;;;;20868625;28;19917;-58
2022/11/18 23:48:39;;;;;;;;;;;4.30;99.90;;;;;;20865313;28;19954;-58
2022/11/18 23:58:41;;;;;;;;;;;4.20;99.90;;;;;;20883071;28;19970;-59
